createdAt,value
2023-09-27T00:00:11.314Z,19.02
2023-09-27T00:02:43.886Z,18.25
2023-09-27T00:05:12.887Z,19.50
2023-09-27T00:07:42.493Z,21.35
2023-09-27T00:10:11.043Z,21.38
2023-09-27T00:12:39.992Z,21.55
2023-09-27T00:15:09.496Z,21.45
2023-09-27T00:17:37.119Z,21.73
2023-09-27T00:20:06.673Z,18.52
2023-09-27T00:22:34.192Z,20.88
2023-09-27T00:25:01.579Z,23.67
2023-09-27T00:27:28.931Z,22.75
2023-09-27T00:29:56.314Z,20.10
2023-09-27T00:32:23.647Z,19.30
2023-09-27T00:34:51.522Z,25.60
2023-09-27T00:37:18.908Z,19.63
2023-09-27T00:39:46.450Z,23.00
2023-09-27T00:42:14.213Z,23.48
2023-09-27T00:44:41.964Z,23.48
2023-09-27T00:47:09.316Z,21.08
2023-09-27T00:49:37.293Z,20.65
2023-09-27T00:52:06.014Z,25.65
2023-09-27T00:54:43.492Z,20.60
2023-09-27T00:57:11.458Z,21.58
2023-09-27T00:59:39.468Z,24.40
2023-09-27T01:02:08.580Z,25.17
2023-09-27T01:04:35.948Z,21.55
2023-09-27T01:07:03.206Z,23.85
2023-09-27T01:09:33.756Z,22.70
2023-09-27T01:12:01.123Z,22.35
2023-09-27T01:14:29.531Z,22.20
2023-09-27T01:16:57.110Z,21.92
2023-09-27T01:19:24.661Z,25.63
2023-09-27T01:21:52.028Z,27.23
2023-09-27T01:24:20.409Z,23.20
2023-09-27T01:26:48.206Z,21.77
2023-09-27T01:29:15.664Z,26.77
2023-09-27T01:31:42.995Z,24.02
2023-09-27T01:34:11.133Z,22.17
2023-09-27T01:36:38.431Z,22.60
2023-09-27T01:39:08.342Z,22.63
2023-09-27T01:41:35.731Z,22.02
2023-09-27T01:44:03.601Z,21.33
2023-09-27T01:46:31.105Z,22.70
2023-09-27T01:48:59.611Z,23.65
2023-09-27T01:51:27.419Z,27.83
2023-09-27T01:53:54.759Z,25.92
2023-09-27T01:56:22.298Z,23.33
2023-09-27T01:58:49.698Z,24.15
2023-09-27T02:01:17.161Z,25.58
2023-09-27T02:03:45.884Z,26.45
2023-09-27T02:06:13.526Z,24.05
2023-09-27T02:08:41.275Z,23.73
2023-09-27T02:11:08.826Z,25.80
2023-09-27T02:13:36.678Z,28.02
2023-09-27T02:16:04.333Z,22.05
2023-09-27T02:18:31.802Z,25.05
2023-09-27T02:20:59.628Z,24.63
2023-09-27T02:23:28.445Z,26.23
2023-09-27T02:25:59.277Z,26.95
2023-09-27T02:28:26.717Z,23.63
2023-09-27T02:30:54.946Z,22.65
2023-09-27T02:33:22.257Z,27.63
2023-09-27T02:35:49.531Z,24.60
2023-09-27T02:38:17.247Z,22.10
2023-09-27T02:40:44.829Z,30.48
2023-09-27T02:43:12.242Z,25.48
2023-09-27T02:45:39.591Z,24.50
2023-09-27T02:48:07.289Z,25.63
2023-09-27T02:50:34.887Z,24.70
2023-09-27T02:53:02.202Z,29.92
2023-09-27T02:55:29.569Z,22.88
2023-09-27T02:57:57.069Z,27.00
2023-09-27T03:00:24.415Z,24.77
2023-09-27T03:02:53.947Z,23.90
2023-09-27T03:05:23.053Z,23.48
2023-09-27T03:07:50.514Z,23.77
2023-09-27T03:10:17.847Z,25.30
2023-09-27T03:12:49.490Z,25.23
2023-09-27T03:15:16.977Z,25.45
2023-09-27T03:17:45.569Z,32.78
2023-09-27T03:20:20.897Z,26.90
2023-09-27T03:22:49.868Z,25.02
2023-09-27T03:25:20.741Z,28.65
2023-09-27T03:27:48.855Z,27.42
2023-09-27T03:30:18.102Z,27.10
2023-09-27T03:32:46.113Z,27.40
2023-09-27T03:35:13.991Z,26.38
2023-09-27T03:37:41.316Z,27.52
2023-09-27T03:40:14.747Z,30.40
2023-09-27T03:42:45.380Z,27.73
2023-09-27T03:45:15.923Z,32.20
2023-09-27T03:47:46.187Z,26.98
2023-09-27T03:50:18.119Z,26.58
2023-09-27T03:52:45.612Z,33.47
2023-09-27T03:55:13.392Z,30.10
2023-09-27T03:57:42.472Z,26.45
2023-09-27T04:00:18.980Z,29.48
2023-09-27T04:02:49.014Z,27.75
2023-09-27T04:05:19.666Z,27.98
2023-09-27T04:07:48.072Z,26.20
2023-09-27T04:10:18.170Z,30.77
2023-09-27T04:12:45.674Z,28.35
2023-09-27T04:15:13.150Z,26.65
2023-09-27T04:17:40.953Z,29.63
2023-09-27T04:20:20.129Z,29.42
2023-09-27T04:22:50.327Z,31.40
2023-09-27T04:25:19.233Z,31.70
2023-09-27T04:27:48.592Z,31.42
2023-09-27T04:30:16.840Z,32.70
2023-09-27T04:32:45.431Z,30.40
2023-09-27T04:35:14.622Z,27.58
2023-09-27T04:37:42.553Z,30.13
2023-09-27T04:40:13.290Z,29.95
2023-09-27T04:45:11.664Z,29.52
2023-09-27T04:47:40.890Z,29.40
2023-09-27T04:50:11.023Z,29.77
2023-09-27T04:52:39.665Z,28.65
2023-09-27T04:55:08.538Z,33.25
2023-09-27T04:57:36.860Z,30.50
2023-09-27T05:00:05.376Z,30.58
2023-09-27T05:02:32.914Z,32.95
2023-09-27T05:05:00.408Z,27.33
2023-09-27T05:07:27.814Z,28.85
2023-09-27T05:09:55.084Z,29.27
2023-09-27T05:12:22.385Z,32.47
2023-09-27T05:14:49.867Z,30.50
2023-09-27T05:17:17.432Z,27.15
2023-09-27T05:19:45.289Z,30.70
2023-09-27T05:22:13.973Z,28.38
2023-09-27T05:24:41.579Z,31.40
2023-09-27T05:27:09.181Z,33.08
2023-09-27T05:29:36.939Z,28.20
2023-09-27T05:32:04.789Z,39.75
2023-09-27T05:34:35.053Z,29.70
2023-09-27T05:37:02.963Z,31.63
2023-09-27T05:39:30.406Z,30.08
2023-09-27T05:41:57.855Z,37.50
2023-09-27T05:44:25.279Z,35.05
2023-09-27T05:46:52.988Z,32.45
2023-09-27T05:49:20.377Z,32.05
2023-09-27T05:51:47.705Z,31.08
2023-09-27T05:54:15.127Z,31.65
2023-09-27T05:56:47.112Z,30.73
2023-09-27T05:59:15.890Z,34.50
2023-09-27T06:01:43.518Z,30.90
2023-09-27T06:04:11.789Z,31.17
2023-09-27T06:06:40.481Z,32.80
2023-09-27T06:09:10.650Z,30.30
2023-09-27T06:11:38.199Z,31.05
2023-09-27T06:14:11.929Z,29.98
2023-09-27T06:16:41.115Z,31.60
2023-09-27T06:19:11.247Z,28.50
2023-09-27T06:21:39.015Z,31.88
2023-09-27T06:24:07.796Z,28.58
2023-09-27T06:26:35.556Z,29.48
2023-09-27T06:29:03.201Z,27.55
2023-09-27T06:31:31.562Z,28.17
2023-09-27T06:33:59.017Z,31.00
2023-09-27T06:36:31.039Z,25.98
2023-09-27T06:38:58.371Z,29.42
2023-09-27T06:41:32.841Z,31.02
2023-09-27T06:44:01.945Z,27.63
2023-09-27T06:46:35.658Z,29.42
2023-09-27T06:49:13.882Z,30.75
2023-09-27T06:51:41.287Z,29.98
2023-09-27T06:54:08.956Z,31.52
2023-09-27T06:56:36.444Z,29.15
2023-09-27T06:59:04.007Z,34.63
2023-09-27T07:01:32.177Z,27.33
2023-09-27T07:03:59.596Z,27.00
2023-09-27T07:06:27.049Z,28.15
2023-09-27T07:08:59.343Z,24.77
2023-09-27T07:11:26.992Z,26.40
2023-09-27T07:13:54.540Z,26.85
2023-09-27T07:16:31.121Z,27.67
2023-09-27T07:19:02.130Z,30.65
2023-09-27T07:21:31.416Z,29.67
2023-09-27T07:23:59.896Z,26.87
2023-09-27T07:26:27.761Z,28.48
2023-09-27T07:28:56.023Z,24.92
2023-09-27T07:31:24.345Z,25.15
2023-09-27T07:33:55.816Z,26.98
2023-09-27T07:36:27.842Z,28.30
2023-09-27T07:38:59.246Z,22.30
2023-09-27T07:41:27.216Z,26.83
2023-09-27T07:43:54.947Z,22.60
2023-09-27T07:46:23.204Z,22.63
2023-09-27T07:48:50.640Z,19.55
2023-09-27T07:51:23.029Z,19.95
2023-09-27T07:53:50.638Z,22.20
2023-09-27T07:56:25.544Z,22.75
2023-09-27T07:58:55.219Z,25.08
2023-09-27T08:01:25.096Z,19.50
2023-09-27T08:03:56.351Z,20.40
2023-09-27T08:06:24.684Z,19.02
2023-09-27T08:08:53.694Z,23.02
2023-09-27T08:11:21.616Z,18.90
2023-09-27T08:13:50.502Z,21.70
2023-09-27T08:16:19.450Z,22.17
2023-09-27T08:18:46.790Z,23.35
2023-09-27T08:21:14.321Z,21.00
2023-09-27T08:23:43.122Z,23.55
2023-09-27T08:26:13.931Z,26.73
2023-09-27T08:28:41.885Z,18.77
2023-09-27T08:31:10.686Z,18.88
2023-09-27T08:33:38.929Z,17.58
2023-09-27T08:36:06.575Z,19.15
2023-09-27T08:38:35.060Z,19.58
2023-09-27T08:41:05.544Z,17.67
2023-09-27T08:46:05.828Z,16.67
2023-09-27T08:48:33.603Z,17.38
2023-09-27T08:51:06.542Z,18.27
2023-09-27T08:53:35.795Z,22.80
2023-09-27T08:56:05.629Z,21.67
2023-09-27T08:58:35.413Z,18.83
2023-09-27T09:01:04.599Z,23.02
2023-09-27T09:03:33.362Z,19.45
2023-09-27T09:06:01.143Z,19.02
2023-09-27T09:08:42.658Z,20.83
2023-09-27T09:11:12.594Z,19.90
2023-09-27T09:14:05.462Z,19.45
2023-09-27T09:16:45.737Z,23.73
2023-09-27T09:22:01.656Z,19.02
2023-09-27T09:24:29.211Z,23.58
2023-09-27T09:27:12.756Z,20.35
2023-09-27T09:29:48.239Z,18.88
2023-09-27T09:32:20.098Z,23.58
2023-09-27T09:34:52.270Z,20.95
2023-09-27T09:37:21.713Z,18.15
2023-09-27T09:39:54.294Z,21.25
2023-09-27T09:42:33.566Z,17.23
2023-09-27T09:45:08.826Z,17.48
2023-09-27T09:47:38.938Z,19.60
2023-09-27T09:52:39.980Z,17.30
2023-09-27T09:55:24.013Z,16.75
2023-09-27T09:58:07.859Z,18.15
2023-09-27T10:00:36.547Z,19.85
2023-09-27T10:03:07.711Z,17.05
2023-09-27T10:05:40.877Z,17.13
2023-09-27T10:08:09.340Z,16.45
2023-09-27T10:10:38.440Z,14.27
2023-09-27T10:13:10.011Z,17.75
2023-09-27T10:15:39.405Z,12.70
2023-09-27T10:18:29.811Z,11.02
2023-09-27T10:21:23.357Z,14.55
2023-09-27T10:23:58.583Z,11.85
2023-09-27T10:26:29.142Z,12.15
2023-09-27T10:29:02.914Z,10.32
2023-09-27T10:31:37.830Z,8.70
2023-09-27T10:34:27.298Z,13.35
2023-09-27T10:37:15.174Z,10.25
2023-09-27T10:40:19.638Z,11.05
2023-09-27T10:42:47.083Z,13.52
2023-09-27T10:45:14.625Z,11.98
2023-09-27T10:47:42.309Z,11.48
2023-09-27T10:50:11.960Z,11.80
2023-09-27T10:52:40.798Z,8.52
2023-09-27T10:55:12.777Z,9.10
2023-09-27T10:57:42.495Z,9.15
2023-09-27T11:00:14.097Z,8.63
2023-09-27T11:02:43.189Z,10.70
2023-09-27T11:05:13.278Z,11.02
2023-09-27T11:07:49.869Z,8.82
2023-09-27T11:10:34.071Z,11.82
2023-09-27T11:13:13.744Z,11.35
2023-09-27T11:15:42.896Z,7.38
2023-09-27T11:18:12.049Z,11.90
2023-09-27T11:20:43.608Z,8.43
2023-09-27T11:23:11.822Z,7.85
2023-09-27T11:25:39.484Z,10.70
2023-09-27T11:28:07.387Z,10.68
2023-09-27T11:30:36.337Z,10.10
2023-09-27T11:33:09.350Z,8.93
2023-09-27T11:35:37.270Z,10.38
2023-09-27T11:38:14.566Z,11.52
2023-09-27T11:40:44.788Z,13.20
2023-09-27T11:43:19.300Z,11.23
2023-09-27T11:45:48.727Z,12.18
2023-09-27T11:48:17.770Z,13.65
2023-09-27T11:50:45.370Z,10.73
2023-09-27T11:53:14.079Z,9.63
2023-09-27T11:55:42.618Z,9.57
2023-09-27T11:58:10.372Z,11.18
2023-09-27T12:00:37.828Z,7.07
2023-09-27T12:03:06.176Z,8.82
2023-09-27T12:05:38.835Z,11.18
2023-09-27T12:08:09.377Z,8.43
2023-09-27T12:10:36.928Z,11.90
2023-09-27T12:13:04.534Z,9.82
2023-09-27T12:15:31.867Z,11.50
2023-09-27T12:17:59.460Z,10.75
2023-09-27T12:20:39.673Z,10.55
2023-09-27T12:23:11.024Z,14.57
2023-09-27T12:25:38.957Z,11.15
2023-09-27T12:28:07.852Z,10.52
2023-09-27T12:30:35.333Z,11.45
2023-09-27T12:33:03.401Z,10.65
2023-09-27T12:35:32.738Z,10.20
2023-09-27T12:38:05.535Z,13.32
2023-09-27T12:40:33.946Z,9.18
2023-09-27T12:43:02.988Z,9.75
2023-09-27T12:45:31.574Z,17.50
2023-09-27T12:47:59.292Z,12.50
2023-09-27T12:50:29.796Z,13.73
2023-09-27T12:55:25.257Z,15.52
2023-09-27T12:57:54.268Z,8.25
2023-09-27T13:00:22.590Z,8.20
2023-09-27T13:02:50.318Z,10.23
2023-09-27T13:05:18.379Z,14.95
2023-09-27T13:07:45.741Z,10.52
2023-09-27T13:10:13.124Z,13.77
2023-09-27T13:12:44.037Z,8.20
2023-09-27T13:15:12.599Z,9.43
2023-09-27T13:17:40.203Z,7.90
2023-09-27T13:20:11.606Z,11.15
2023-09-27T13:22:39.647Z,7.88
2023-09-27T13:25:08.170Z,8.80
2023-09-27T13:27:36.256Z,13.55
2023-09-27T13:30:04.939Z,8.77
2023-09-27T13:32:33.142Z,8.77
2023-09-27T13:35:01.672Z,7.70
2023-09-27T13:37:29.092Z,12.05
2023-09-27T13:39:57.588Z,11.27
2023-09-27T13:42:25.102Z,12.40
2023-09-27T13:44:53.412Z,8.50
2023-09-27T13:47:20.814Z,9.05
2023-09-27T13:49:48.242Z,8.77
2023-09-27T13:52:15.670Z,6.95
2023-09-27T13:54:43.161Z,10.40
2023-09-27T13:57:11.245Z,8.25
2023-09-27T13:59:39.571Z,11.65
2023-09-27T14:02:07.941Z,11.75
2023-09-27T14:04:35.333Z,11.73
2023-09-27T14:07:02.681Z,10.07
2023-09-27T14:09:30.065Z,7.97
2023-09-27T14:11:57.551Z,9.95
2023-09-27T14:14:26.037Z,10.75
2023-09-27T14:16:53.899Z,6.57
2023-09-27T14:19:21.365Z,10.60
2023-09-27T14:21:48.816Z,9.30
2023-09-27T14:24:16.109Z,6.80
2023-09-27T14:26:45.695Z,10.23
2023-09-27T14:29:22.227Z,6.93
2023-09-27T14:32:00.322Z,7.28
2023-09-27T14:34:28.073Z,8.32
2023-09-27T14:37:08.976Z,9.70
2023-09-27T14:39:36.449Z,9.23
2023-09-27T14:42:04.133Z,6.57
2023-09-27T14:44:34.719Z,7.50
2023-09-27T14:47:02.124Z,9.77
2023-09-27T14:49:30.121Z,7.47
2023-09-27T14:51:57.990Z,10.07
2023-09-27T14:54:25.282Z,7.95
2023-09-27T14:56:52.751Z,7.05
2023-09-27T14:59:20.149Z,9.43
2023-09-27T15:01:48.460Z,18.73
2023-09-27T15:04:16.289Z,6.22
2023-09-27T15:06:43.662Z,9.95
2023-09-27T15:09:11.222Z,13.23
2023-09-27T15:11:38.729Z,9.75
2023-09-27T15:14:06.577Z,9.23
2023-09-27T15:16:35.871Z,8.95
2023-09-27T15:19:03.322Z,9.75
2023-09-27T15:21:30.743Z,9.40
2023-09-27T15:23:58.037Z,8.70
2023-09-27T15:26:25.630Z,8.55
2023-09-27T15:28:53.062Z,8.02
2023-09-27T15:31:20.576Z,9.55
2023-09-27T15:33:49.910Z,8.13
2023-09-27T15:36:18.163Z,9.75
2023-09-27T15:38:46.778Z,9.45
2023-09-27T15:41:20.178Z,7.55
2023-09-27T15:43:49.340Z,9.32
2023-09-27T15:46:18.000Z,7.40
2023-09-27T15:48:45.868Z,8.55
2023-09-27T15:51:14.561Z,7.75
2023-09-27T15:53:42.190Z,8.52
2023-09-27T15:56:11.825Z,20.63
2023-09-27T15:58:39.638Z,23.17
2023-09-27T16:01:08.011Z,12.32
2023-09-27T16:03:36.560Z,7.57
2023-09-27T16:06:05.759Z,10.25
2023-09-27T16:08:33.299Z,12.50
2023-09-27T16:11:00.797Z,7.57
2023-09-27T16:13:29.166Z,10.95
2023-09-27T16:15:56.599Z,9.95
2023-09-27T16:18:23.955Z,11.25
2023-09-27T16:20:51.530Z,6.15
2023-09-27T16:23:19.136Z,7.70
2023-09-27T16:25:48.107Z,7.45
2023-09-27T16:28:16.220Z,7.53
2023-09-27T16:30:44.288Z,5.80
2023-09-27T16:33:11.981Z,8.70
2023-09-27T16:35:41.230Z,7.40
2023-09-27T16:38:10.970Z,7.25
2023-09-27T16:40:40.934Z,7.35
2023-09-27T16:43:08.647Z,8.50
2023-09-27T16:45:40.882Z,6.72
2023-09-27T16:48:08.929Z,5.55
2023-09-27T16:50:36.368Z,8.93
2023-09-27T16:53:04.591Z,5.70
2023-09-27T16:55:32.051Z,5.88
2023-09-27T16:57:59.686Z,5.60
2023-09-27T17:00:27.605Z,9.43
2023-09-27T17:02:55.095Z,10.13
2023-09-27T17:05:22.517Z,7.10
2023-09-27T17:07:49.900Z,6.70
2023-09-27T17:10:18.567Z,9.00
2023-09-27T17:12:46.499Z,7.05
2023-09-27T17:15:14.063Z,9.25
2023-09-27T17:17:41.788Z,7.28
2023-09-27T17:20:09.915Z,8.52
2023-09-27T17:22:37.890Z,9.45
2023-09-27T17:25:07.600Z,16.35
2023-09-27T17:27:34.981Z,11.45
2023-09-27T17:30:03.750Z,8.95
2023-09-27T17:32:31.253Z,11.50
2023-09-27T17:34:58.697Z,13.25
2023-09-27T17:37:26.181Z,12.73
2023-09-27T17:39:53.648Z,11.18
2023-09-27T17:42:21.227Z,14.88
2023-09-27T17:44:49.558Z,11.85
2023-09-27T17:47:17.320Z,16.00
2023-09-27T17:49:44.742Z,17.48
2023-09-27T17:52:12.269Z,15.77
2023-09-27T17:54:39.925Z,18.05
2023-09-27T17:57:07.407Z,16.98
2023-09-27T17:59:34.751Z,14.90
2023-09-27T18:02:02.471Z,18.35
2023-09-27T18:04:31.499Z,16.90
2023-09-27T18:06:59.375Z,15.02
2023-09-27T18:09:27.397Z,17.83
2023-09-27T18:11:54.708Z,14.95
2023-09-27T18:14:23.128Z,17.05
2023-09-27T18:16:50.781Z,16.40
2023-09-27T18:19:18.105Z,16.20
2023-09-27T18:21:46.860Z,15.00
2023-09-27T18:24:14.392Z,15.63
2023-09-27T18:26:41.813Z,16.10
2023-09-27T18:29:10.172Z,16.55
2023-09-27T18:31:39.921Z,15.63
2023-09-27T18:34:09.046Z,15.70
2023-09-27T18:36:36.540Z,16.17
2023-09-27T18:39:04.273Z,15.73
2023-09-27T18:41:31.616Z,17.83
2023-09-27T18:43:58.951Z,18.35
2023-09-27T18:46:26.793Z,16.42
2023-09-27T18:48:54.460Z,15.77
2023-09-27T18:51:23.802Z,15.75
2023-09-27T18:53:52.680Z,15.18
2023-09-27T18:56:24.237Z,16.33
2023-09-27T18:58:52.322Z,16.75
2023-09-27T19:01:19.753Z,18.27
2023-09-27T19:03:47.086Z,19.20
2023-09-27T19:06:15.776Z,19.58
2023-09-27T19:08:43.698Z,16.02
2023-09-27T19:11:21.135Z,16.42
2023-09-27T19:13:48.681Z,18.17
2023-09-27T19:16:16.045Z,18.08
2023-09-27T19:18:43.575Z,18.30
2023-09-27T19:21:11.641Z,20.10
2023-09-27T19:23:40.694Z,18.70
2023-09-27T19:26:08.663Z,19.17
2023-09-27T19:28:37.434Z,18.33
2023-09-27T19:31:07.754Z,19.63
2023-09-27T19:33:35.570Z,22.10
2023-09-27T19:36:03.143Z,18.88
2023-09-27T19:38:32.040Z,21.75
2023-09-27T19:40:59.336Z,21.90
2023-09-27T19:43:26.824Z,21.33
2023-09-27T19:45:54.247Z,27.60
2023-09-27T19:48:21.654Z,23.17
2023-09-27T19:50:49.403Z,25.90
2023-09-27T19:53:16.740Z,25.15
2023-09-27T19:55:44.402Z,23.50
2023-09-27T19:58:11.798Z,19.40
2023-09-27T20:00:41.462Z,19.52
2023-09-27T20:03:09.133Z,18.37
2023-09-27T20:05:37.137Z,17.52
2023-09-27T20:08:04.896Z,20.13
2023-09-27T20:10:32.656Z,17.88
2023-09-27T20:13:00.163Z,17.15
2023-09-27T20:15:27.707Z,19.20
2023-09-27T20:17:55.030Z,16.27
2023-09-27T20:20:22.746Z,16.23
2023-09-27T20:22:50.735Z,17.50
2023-09-27T20:25:18.446Z,19.35
2023-09-27T20:27:45.676Z,19.02
2023-09-27T20:30:14.080Z,20.40
2023-09-27T20:32:41.722Z,21.02
2023-09-27T20:35:09.775Z,22.38
2023-09-27T20:37:38.224Z,22.27
2023-09-27T20:40:07.388Z,21.55
2023-09-27T20:42:36.122Z,22.33
2023-09-27T20:45:03.816Z,22.40
2023-09-27T20:47:31.314Z,21.48
2023-09-27T20:49:58.710Z,23.30
2023-09-27T20:52:26.564Z,22.25
2023-09-27T20:54:54.203Z,23.52
2023-09-27T20:57:22.941Z,22.52
2023-09-27T20:59:50.809Z,23.52
2023-09-27T21:02:18.483Z,23.77
2023-09-27T21:04:46.329Z,25.08
2023-09-27T21:07:13.743Z,24.38
2023-09-27T21:09:41.081Z,23.90
2023-09-27T21:12:09.257Z,23.05
2023-09-27T21:14:38.450Z,22.65
2023-09-27T21:17:06.552Z,21.65
2023-09-27T21:19:35.106Z,22.00
2023-09-27T21:22:05.221Z,23.27
2023-09-27T21:24:32.602Z,22.33
2023-09-27T21:26:59.979Z,23.20
2023-09-27T21:29:27.802Z,21.95
2023-09-27T21:31:55.390Z,23.65
2023-09-27T21:34:23.300Z,20.27
2023-09-27T21:36:51.802Z,20.75
2023-09-27T21:39:19.693Z,20.20
2023-09-27T21:41:47.051Z,20.10
2023-09-27T21:44:14.695Z,18.42
2023-09-27T21:46:42.175Z,18.02
2023-09-27T21:49:09.583Z,16.98
2023-09-27T21:51:36.836Z,16.80
2023-09-27T21:54:04.912Z,16.35
2023-09-27T21:56:35.420Z,16.60
2023-09-27T21:59:03.072Z,14.03
2023-09-27T22:01:30.433Z,14.85
2023-09-27T22:03:57.830Z,16.35
2023-09-27T22:06:25.696Z,12.90
2023-09-27T22:08:54.034Z,12.50
2023-09-27T22:11:22.185Z,12.93
2023-09-27T22:13:49.908Z,10.95
2023-09-27T22:16:22.399Z,11.73
2023-09-27T22:18:50.252Z,11.85
2023-09-27T22:21:39.292Z,10.65
2023-09-27T22:24:14.838Z,12.32
2023-09-27T22:26:47.184Z,11.63
2023-09-27T22:29:15.782Z,11.95
2023-09-27T22:31:43.783Z,10.15
2023-09-27T22:34:12.417Z,11.18
2023-09-27T22:36:48.154Z,10.73
2023-09-27T22:39:20.429Z,10.85
2023-09-27T22:41:49.881Z,11.98
2023-09-27T22:44:23.610Z,11.25
2023-09-27T22:46:53.946Z,10.02
2023-09-27T22:49:23.453Z,12.05
2023-09-27T22:51:51.500Z,9.18
2023-09-27T22:54:20.899Z,10.50
2023-09-27T22:56:49.901Z,10.23
2023-09-27T22:59:20.086Z,8.60
2023-09-27T23:01:50.573Z,9.63
2023-09-27T23:04:17.896Z,9.60
2023-09-27T23:06:46.661Z,9.63
2023-09-27T23:09:21.741Z,10.70
2023-09-27T23:11:50.725Z,9.25
2023-09-27T23:14:24.401Z,11.13
2023-09-27T23:17:14.772Z,8.95
2023-09-27T23:19:45.089Z,8.55
2023-09-27T23:22:13.022Z,8.63
2023-09-27T23:24:43.802Z,11.20
2023-09-27T23:27:11.252Z,9.82
2023-09-27T23:29:41.911Z,12.05
2023-09-27T23:37:31.614Z,7.82
2023-09-27T23:40:00.358Z,9.30
2023-09-27T23:42:29.043Z,8.05
2023-09-27T23:45:11.794Z,8.43
2023-09-27T23:48:07.487Z,8.25
2023-09-27T23:50:34.856Z,14.07
2023-09-27T23:53:02.144Z,9.93
2023-09-27T23:55:29.513Z,8.70
2023-09-27T23:58:04.370Z,10.15
